Aviation Digital Data Service (ADDS)

Output produced by METARs form (0609 UTC 28 September 2022)
found at http://aviationweather.gov/metar/data/
 
METAR text: KMHR 280555Z AUTO 16005KT 10SM CLR 15/10 A2993 RMK A01
Conditions at: KMHR (MATHER FIELD , CA, US) observed 0555 UTC 28 September 2022
Temperature: 15.0°C (59°F)
Dewpoint: 10.0°C (50°F) [RH = 72%]
Pressure (altimeter): 29.93 inches Hg (1013.6 mb)
Winds: from the SSE (160 degrees) at 6 MPH (5 knots; 2.6 m/s)
Visibility: 10 or more miles (16+ km)
Ceiling: at least 12,000 feet AGL
Clouds: sky clear below 12,000 feet AGL
Weather: automated observation with no human augmentation;
there may or may not be significant weather present at this time

METAR text: KMHR 280535Z AUTO 18005KT 10SM CLR 17/10 A2993 RMK A01
Conditions at: KMHR (MATHER FIELD , CA, US) observed 0535 UTC 28 September 2022
Temperature: 17.0°C (63°F)
Dewpoint: 10.0°C (50°F) [RH = 63%]
Pressure (altimeter): 29.93 inches Hg (1013.6 mb)
Winds: from the S (180 degrees) at 6 MPH (5 knots; 2.6 m/s)
Visibility: 10 or more miles (16+ km)
Ceiling: at least 12,000 feet AGL
Clouds: sky clear below 12,000 feet AGL
Weather: automated observation with no human augmentation;
there may or may not be significant weather present at this time

METAR text: KMHR 280515Z AUTO 20006KT 10SM CLR 18/11 A2993 RMK A01
Conditions at: KMHR (MATHER FIELD , CA, US) observed 0515 UTC 28 September 2022
Temperature: 18.0°C (64°F)
Dewpoint: 11.0°C (52°F) [RH = 64%]
Pressure (altimeter): 29.93 inches Hg (1013.6 mb)
Winds: from the SSW (200 degrees) at 7 MPH (6 knots; 3.1 m/s)
Visibility: 10 or more miles (16+ km)
Ceiling: at least 12,000 feet AGL
Clouds: sky clear below 12,000 feet AGL
Weather: automated observation with no human augmentation;
there may or may not be significant weather present at this time

Forecast for: KMHR (MATHER FIELD , CA, US)
Text: KMHR 280520Z 2806/2906 16006KT P6SM SKC
Forecast period: 0600 to 2100 UTC 28 September 2022
Forecast type: FROM: standard forecast or significant change
Winds: from the SSE (160 degrees) at 7 MPH (6 knots; 3.1 m/s)
Visibility: 6 or more miles (10+ km)
Clouds: clear skies
Weather: no significant weather forecast for this period
Text: FM282100 23006KT P6SM SKC
Forecast period: 2100 UTC 28 September 2022 to 0600 UTC 29 September 2022
Forecast type: FROM: standard forecast or significant change
Winds: from the SW (230 degrees) at 7 MPH (6 knots; 3.1 m/s)
Visibility: 6 or more miles (10+ km)
Clouds: clear skies
Weather: no significant weather forecast for this period